Time;durP1;ratioP1;P1;durP2;ratioP2;P2;SDS_P1;SDS_P2;PMS_P1;PMS_P2;Temp;Humidity;BMP_temperature;BMP_pressure;BME280_temperature;BME280_humidity;BME280_pressure;Samples;Min_cycle;Max_cycle;Signal;HPM_P1;HPM_P2
2021/10/08 00:02:57;;;;;;;8.80;5.60;;;;;;;6.93;62.73;102169.42;228794;1196;137117;-71
2021/10/08 00:08:01;;;;;;;11.40;6.20;;;;;;;6.86;63.29;102168.79;228956;1196;137072;-73
2021/10/08 00:13:03;;;;;;;10.40;5.80;;;;;;;6.78;63.02;102164.98;228733;1196;137312;-74
2021/10/08 00:18:05;;;;;;;10.70;6.40;;;;;;;6.78;63.22;102169.94;228939;1203;137762;-71
2021/10/08 00:23:06;;;;;;;9.50;6.20;;;;;;;6.65;63.53;102173.44;228875;1199;137622;-74
2021/10/08 00:28:08;;;;;;;8.60;6.40;;;;;;;6.61;63.71;102177.48;228775;1199;137096;-73
2021/10/08 00:33:11;;;;;;;12.40;7.10;;;;;;;6.60;63.89;102181.73;228852;1197;137372;-73
2021/10/08 00:38:12;;;;;;;11.00;6.40;;;;;;;6.58;63.87;102188.33;229220;1196;137149;-73
2021/10/08 00:43:19;;;;;;;13.00;6.20;;;;;;;6.59;63.50;102193.91;229489;1203;137452;-73
2021/10/08 00:48:21;;;;;;;9.00;6.10;;;;;;;6.57;63.49;102201.33;233223;1197;137120;-72
2021/10/08 00:53:23;;;;;;;8.10;6.00;;;;;;;6.51;63.46;102199.59;231111;1196;137660;-73
2021/10/08 00:58:25;;;;;;;9.00;6.20;;;;;;;6.44;63.70;102200.64;228950;1197;136893;-71
2021/10/08 01:03:26;;;;;;;10.40;6.70;;;;;;;6.36;63.83;102198.98;228854;1197;137229;-73
2021/10/08 01:08:28;;;;;;;9.60;6.30;;;;;;;6.32;64.02;102205.85;228802;1199;137687;-74
2021/10/08 01:13:30;;;;;;;8.20;5.70;;;;;;;6.26;63.96;102208.61;228788;1196;137042;-71
2021/10/08 01:18:32;;;;;;;9.50;5.70;;;;;;;6.19;64.19;102210.20;228855;1197;137355;-71
2021/10/08 01:23:33;;;;;;;10.60;6.20;;;;;;;6.16;64.13;102213.16;228877;1196;136993;-74
2021/10/08 01:28:35;;;;;;;9.70;6.40;;;;;;;6.13;64.25;102215.59;228815;1200;138129;-73
2021/10/08 01:33:37;;;;;;;10.70;5.90;;;;;;;6.12;64.23;102219.14;228767;1196;136797;-71
2021/10/08 01:38:39;;;;;;;11.00;6.00;;;;;;;6.09;64.03;102215.27;228969;1196;137563;-74
2021/10/08 01:43:40;;;;;;;8.30;6.00;;;;;;;6.01;63.81;102219.34;228805;1197;137264;-73
2021/10/08 01:48:42;;;;;;;8.40;5.50;;;;;;;5.95;64.17;102218.30;228724;1199;137037;-73
2021/10/08 01:53:44;;;;;;;9.00;6.20;;;;;;;5.93;64.10;102227.13;228795;1197;137304;-73
2021/10/08 01:58:45;;;;;;;7.90;5.50;;;;;;;5.89;64.29;102226.06;228848;1197;137453;-72
2021/10/08 02:03:49;;;;;;;8.20;5.40;;;;;;;5.84;64.32;102229.13;228756;1199;137467;-72
2021/10/08 02:08:50;;;;;;;13.80;6.40;;;;;;;5.82;64.07;102222.91;228980;1190;137667;-72
2021/10/08 02:13:53;;;;;;;10.30;6.00;;;;;;;5.78;64.17;102226.27;228855;1200;137974;-73
2021/10/08 02:18:56;;;;;;;8.60;5.90;;;;;;;5.75;64.10;102234.13;228872;1199;138308;-72
2021/10/08 02:23:58;;;;;;;7.60;5.30;;;;;;;5.73;63.91;102242.80;228667;1200;138854;-74
2021/10/08 02:28:59;;;;;;;7.80;5.50;;;;;;;5.68;64.07;102244.60;228963;1197;139319;-72
2021/10/08 02:34:01;;;;;;;9.40;5.70;;;;;;;5.64;64.07;102244.44;228774;1199;137135;-73
2021/10/08 02:39:03;;;;;;;9.70;6.30;;;;;;;5.67;63.86;102252.73;228649;1200;137892;-72
2021/10/08 02:44:06;;;;;;;7.90;5.30;;;;;;;5.60;64.05;102254.77;229183;1198;137322;-73
2021/10/08 02:49:08;;;;;;;10.30;5.80;;;;;;;5.55;64.49;102256.27;228881;1200;137445;-75
2021/10/08 02:54:09;;;;;;;13.00;5.70;;;;;;;5.51;64.28;102261.34;229849;1197;137584;-74
2021/10/08 02:59:11;;;;;;;9.00;5.60;;;;;;;5.48;64.36;102265.34;229667;1197;138331;-72
2021/10/08 03:04:13;;;;;;;10.20;5.60;;;;;;;5.43;64.79;102271.87;229696;1196;137434;-73
2021/10/08 03:09:14;;;;;;;15.60;5.90;;;;;;;5.37;64.62;102272.69;229584;1197;137605;-74
2021/10/08 03:14:16;;;;;;;11.90;5.40;;;;;;;5.32;64.70;102281.31;229859;1196;137811;-73
2021/10/08 03:19:18;;;;;;;10.60;5.90;;;;;;;5.28;64.93;102286.42;229592;1196;137457;-73
2021/10/08 03:24:20;;;;;;;10.60;6.00;;;;;;;5.21;64.69;102289.87;229485;1195;137981;-73
2021/10/08 03:29:21;;;;;;;8.70;5.10;;;;;;;5.24;65.23;102291.30;229775;1195;137909;-74
2021/10/08 03:34:23;;;;;;;8.60;5.30;;;;;;;5.18;64.99;102292.45;229064;1196;137546;-74
2021/10/08 03:39:28;;;;;;;10.10;6.20;;;;;;;5.17;64.74;102297.39;228867;1196;138269;-73
2021/10/08 03:44:34;;;;;;;12.10;7.30;;;;;;;5.13;65.21;102304.75;229056;1196;138786;-73
2021/10/08 03:49:36;;;;;;;9.00;5.80;;;;;;;5.09;65.52;102304.75;229681;1197;137328;-74
2021/10/08 03:54:38;;;;;;;8.90;6.10;;;;;;;5.00;65.92;102305.69;229575;1197;137365;-73
2021/10/08 03:59:40;;;;;;;8.30;5.40;;;;;;;4.95;65.98;102311.36;229572;1196;137207;-72
2021/10/08 04:04:42;;;;;;;8.00;5.50;;;;;;;4.93;66.46;102316.15;229794;1195;137258;-73
2021/10/08 04:09:44;;;;;;;9.60;6.10;;;;;;;4.83;66.07;102317.49;229781;1187;137163;-71
2021/10/08 04:14:45;;;;;;;8.50;5.80;;;;;;;4.77;66.21;102316.52;229777;1193;137605;-71
2021/10/08 04:19:47;;;;;;;10.70;6.00;;;;;;;4.72;66.52;102319.02;229742;1197;138119;-72
2021/10/08 04:24:49;;;;;;;11.00;6.20;;;;;;;4.67;66.54;102319.73;229790;1196;138572;-70
2021/10/08 04:29:50;;;;;;;7.10;5.40;;;;;;;4.63;66.81;102317.29;229492;1193;137836;-71
2021/10/08 04:34:52;;;;;;;9.40;6.10;;;;;;;4.53;66.59;102321.78;229016;1196;138172;-72
2021/10/08 04:39:53;;;;;;;9.90;5.90;;;;;;;4.40;66.75;102325.11;229565;1196;137610;-73
2021/10/08 04:44:55;;;;;;;11.90;6.30;;;;;;;4.39;67.16;102328.64;229298;1196;137715;-73
2021/10/08 04:49:57;;;;;;;8.50;5.80;;;;;;;4.38;67.25;102333.05;229330;1197;137780;-74
2021/10/08 04:54:59;;;;;;;10.10;5.90;;;;;;;4.39;67.39;102339.80;229100;1195;137844;-72
2021/10/08 05:00:01;;;;;;;10.30;6.00;;;;;;;4.39;66.81;102347.33;229180;1197;138340;-73
2021/10/08 05:05:04;;;;;;;9.30;5.90;;;;;;;4.30;66.81;102346.99;229350;1196;137871;-72
2021/10/08 05:10:06;;;;;;;8.30;5.90;;;;;;;4.33;67.00;102347.74;229136;1195;137581;-71
2021/10/08 05:15:08;;;;;;;9.10;5.60;;;;;;;4.26;66.94;102345.80;229231;1196;137163;-72
2021/10/08 05:20:10;;;;;;;11.60;5.40;;;;;;;4.28;66.37;102353.04;229980;1195;138209;-70
2021/10/08 05:25:12;;;;;;;12.20;5.70;;;;;;;4.36;66.18;102355.98;230105;1195;137836;-71
2021/10/08 05:30:14;;;;;;;11.10;5.30;;;;;;;4.39;65.97;102358.67;229152;1196;137442;-71
2021/10/08 05:35:16;;;;;;;9.80;5.70;;;;;;;4.36;65.77;102356.38;229094;1196;137730;-72
2021/10/08 05:40:18;;;;;;;7.90;5.80;;;;;;;4.35;65.81;102354.32;229359;1196;137152;-71
2021/10/08 05:45:19;;;;;;;8.80;6.10;;;;;;;4.37;65.84;102363.45;229553;1196;140356;-74
2021/10/08 05:50:21;;;;;;;7.50;6.10;;;;;;;4.37;65.93;102372.02;229790;1187;137353;-72
2021/10/08 05:55:23;;;;;;;10.80;6.40;;;;;;;4.39;65.80;102381.55;229797;1193;138285;-72
2021/10/08 06:00:25;;;;;;;12.00;6.00;;;;;;;4.36;66.41;102384.79;229724;1196;137212;-72
2021/10/08 06:05:27;;;;;;;10.80;5.50;;;;;;;4.41;66.41;102384.08;229774;1197;137132;-72
2021/10/08 06:10:28;;;;;;;12.70;5.70;;;;;;;4.50;65.80;102385.63;229776;1193;137661;-75
2021/10/08 06:15:31;;;;;;;10.70;6.30;;;;;;;4.55;65.02;102392.89;229803;1193;138083;-72
2021/10/08 06:20:33;;;;;;;10.10;5.70;;;;;;;4.58;64.83;102399.92;229712;1195;137643;-68
2021/10/08 06:25:35;;;;;;;10.20;6.10;;;;;;;4.65;65.29;102402.21;229752;1196;137852;-69
2021/10/08 06:30:37;;;;;;;11.90;6.00;;;;;;;4.73;65.04;102406.80;229774;1187;137643;-58
2021/10/08 06:35:39;;;;;;;11.40;6.00;;;;;;;4.81;65.05;102412.94;229832;1196;137482;-72
2021/10/08 06:40:41;;;;;;;6.40;5.10;;;;;;;4.81;64.93;102416.05;229705;1194;137556;-71
2021/10/08 06:45:43;;;;;;;11.40;5.60;;;;;;;4.91;64.00;102424.55;230191;1196;138378;-72
2021/10/08 06:50:46;;;;;;;7.60;5.50;;;;;;;4.97;63.95;102424.25;230045;1195;137452;-71
2021/10/08 06:55:47;;;;;;;8.70;6.10;;;;;;;5.07;62.89;102435.70;229953;1194;137070;-72
2021/10/08 07:00:53;;;;;;;8.00;5.60;;;;;;;5.14;62.97;102440.80;229834;1196;138164;-74
2021/10/08 07:05:55;;;;;;;12.00;6.60;;;;;;;5.24;63.36;102448.80;229641;1196;138404;-72
2021/10/08 07:10:57;;;;;;;11.70;6.10;;;;;;;5.30;62.77;102445.00;229665;1196;138316;-72
2021/10/08 07:15:59;;;;;;;13.80;6.40;;;;;;;5.40;62.72;102446.65;229716;1194;138620;-72
2021/10/08 07:21:02;;;;;;;9.90;6.00;;;;;;;5.48;62.81;102455.20;229568;1197;137821;-71
2021/10/08 07:26:04;;;;;;;15.40;6.10;;;;;;;5.59;62.61;102453.27;229854;1196;137955;-73
2021/10/08 07:31:07;;;;;;;10.10;6.20;;;;;;;5.73;61.72;102460.71;229777;1194;138185;-71
2021/10/08 07:36:09;;;;;;;12.80;6.50;;;;;;;5.80;62.40;102460.90;229803;1193;137932;-71
2021/10/08 07:41:11;;;;;;;10.60;6.30;;;;;;;5.92;61.67;102463.88;229720;1196;137605;-71
2021/10/08 07:46:13;;;;;;;13.90;7.00;;;;;;;6.06;61.04;102460.95;229720;1196;137858;-70
2021/10/08 07:51:15;;;;;;;10.80;6.20;;;;;;;6.09;62.36;102466.21;229746;1196;137452;-73
2021/10/08 07:56:17;;;;;;;9.90;6.10;;;;;;;6.24;60.87;102469.71;229628;1181;137876;-71
2021/10/08 08:01:18;;;;;;;8.90;5.90;;;;;;;6.37;60.40;102475.58;229954;1187;137562;-73
2021/10/08 08:06:20;;;;;;;13.40;5.20;;;;;;;6.41;61.77;102479.73;229751;1196;137297;-72
2021/10/08 08:11:22;;;;;;;12.90;6.30;;;;;;;6.46;62.41;102485.80;229775;1193;137715;-72
2021/10/08 08:16:23;;;;;;;10.20;5.90;;;;;;;6.58;62.35;102481.35;229728;1194;137637;-74
2021/10/08 08:21:25;;;;;;;12.30;5.70;;;;;;;6.71;61.49;102479.49;230270;1193;137744;-72
2021/10/08 08:26:27;;;;;;;12.80;6.70;;;;;;;6.78;60.92;102481.60;229756;1195;138933;-72
2021/10/08 08:31:28;;;;;;;11.30;5.40;;;;;;;6.88;60.21;102482.16;229601;1194;138224;-72
2021/10/08 08:36:30;;;;;;;8.50;4.70;;;;;;;7.04;59.63;102488.46;229725;1196;137830;-72
2021/10/08 08:41:32;;;;;;;9.00;5.80;;;;;;;7.23;58.62;102493.13;229642;1196;137274;-72
2021/10/08 08:46:34;;;;;;;10.70;6.00;;;;;;;7.48;56.76;102493.57;229776;1196;139747;-73
2021/10/08 08:51:36;;;;;;;11.60;5.30;;;;;;;7.65;55.81;102494.75;229633;1197;137806;-71
2021/10/08 08:56:38;;;;;;;7.10;4.90;;;;;;;7.73;55.64;102492.27;229675;1193;137689;-71
2021/10/08 09:02:04;;;;;;;11.70;5.00;;;;;;;7.86;56.41;102488.73;229704;1187;137442;-71
2021/10/08 09:07:14;;;;;;;8.50;5.90;;;;;;;8.03;56.60;102492.13;229847;1196;137331;-71
2021/10/08 09:12:16;;;;;;;9.50;5.40;;;;;;;8.06;56.67;102487.60;229636;1193;137450;-73
2021/10/08 09:17:19;;;;;;;6.50;5.00;;;;;;;8.20;55.48;102490.68;229843;1193;137800;-73
2021/10/08 09:22:29;;;;;;;8.70;5.60;;;;;;;8.45;55.04;102489.14;229756;1193;137554;-74
2021/10/08 09:27:36;;;;;;;7.10;4.80;;;;;;;8.64;53.60;102493.98;229976;1195;137444;-71
2021/10/08 09:32:50;;;;;;;5.40;4.80;;;;;;;8.83;52.86;102492.86;229778;1193;137752;-72
2021/10/08 09:38:08;;;;;;;14.00;6.10;;;;;;;9.00;53.74;102486.80;230017;1193;137669;-73
2021/10/08 09:43:14;;;;;;;15.00;5.70;;;;;;;9.30;48.83;102485.54;230194;1193;137866;-71
2021/10/08 09:48:16;;;;;;;11.70;6.50;;;;;;;9.53;48.28;102481.45;229904;1196;137587;-73
2021/10/08 09:53:18;;;;;;;9.90;5.60;;;;;;;9.71;46.60;102471.88;229701;1193;138171;-73
2021/10/08 09:58:21;;;;;;;8.90;5.50;;;;;;;9.93;45.94;102471.05;229623;1193;137661;-71
2021/10/08 10:03:24;;;;;;;10.80;5.70;;;;;;;10.02;46.22;102466.78;229727;1193;138039;-72
2021/10/08 10:08:26;;;;;;;7.90;5.80;;;;;;;10.26;46.07;102464.15;229734;1197;138578;-72
2021/10/08 10:13:31;;;;;;;10.70;6.10;;;;;;;10.51;43.70;102470.80;229621;1194;139959;-73
2021/10/08 10:18:34;;;;;;;8.20;5.50;;;;;;;10.57;42.22;102475.34;229728;1193;137875;-72
2021/10/08 10:23:37;;;;;;;11.30;5.80;;;;;;;10.61;43.06;102467.17;229764;1187;138291;-72
2021/10/08 10:28:39;;;;;;;8.80;5.60;;;;;;;10.83;43.05;102467.08;229768;1196;138045;-72
2021/10/08 10:33:42;;;;;;;7.80;6.00;;;;;;;11.12;43.23;102461.05;229570;1193;138080;-73
2021/10/08 10:38:43;;;;;;;10.20;5.70;;;;;;;11.34;42.86;102458.30;229640;1193;137767;-73
2021/10/08 10:43:49;;;;;;;7.30;5.20;;;;;;;11.42;41.22;102453.99;229605;1200;138272;-71
2021/10/08 10:54:43;;;;;;;6.90;5.40;;;;;;;12.07;38.62;102447.98;229597;1193;137956;-72
2021/10/08 10:59:46;;;;;;;6.60;4.80;;;;;;;12.43;39.03;102440.16;229620;1194;138137;-72
2021/10/08 11:04:54;;;;;;;8.90;5.20;;;;;;;12.81;38.59;102436.98;229644;1197;137865;-74
2021/10/08 11:09:56;;;;;;;6.50;4.70;;;;;;;13.14;36.94;102441.99;229652;1200;137968;-72
2021/10/08 11:20:42;;;;;;;7.50;4.60;;;;;;;13.74;35.97;102440.58;229686;1200;138219;-72
2021/10/08 11:25:55;;;;;;;9.30;4.80;;;;;;;14.18;33.51;102441.92;229612;1196;137948;-72
2021/10/08 11:30:57;;;;;;;7.60;5.20;;;;;;;15.90;31.01;102429.66;229679;1196;137668;-73
2021/10/08 11:36:20;;;;;;;8.50;5.50;;;;;;;18.52;27.68;102423.14;229639;1194;137605;-72
2021/10/08 11:41:25;;;;;;;9.20;5.90;;;;;;;21.22;23.51;102415.71;229768;1194;138036;-71
2021/10/08 11:46:52;;;;;;;10.40;6.10;;;;;;;18.18;26.87;102418.58;229613;1180;138181;-71
2021/10/08 11:51:58;;;;;;;8.20;6.50;;;;;;;16.03;29.64;102420.37;229605;1194;138928;-74
2021/10/08 11:57:04;;;;;;;9.10;5.50;;;;;;;14.79;32.11;102423.42;229668;1193;137971;-72
2021/10/08 12:02:07;;;;;;;11.90;5.80;;;;;;;14.12;31.78;102418.76;229700;1193;138614;-71
2021/10/08 12:07:10;;;;;;;8.70;5.00;;;;;;;13.88;32.26;102417.69;229692;1196;139676;-72
2021/10/08 12:12:16;;;;;;;7.70;4.80;;;;;;;13.71;32.29;102412.66;229995;1196;138338;-72
2021/10/08 12:17:19;;;;;;;;;;;;;;;13.39;32.97;102414.05;229767;1193;137904;-71
2021/10/08 12:22:26;;;;;;;10.50;4.90;;;;;;;13.43;32.77;102413.02;230141;1197;124095;-71
2021/10/08 12:27:28;;;;;;;10.40;5.20;;;;;;;13.70;33.71;102402.11;230408;1194;138150;-73
2021/10/08 12:32:30;;;;;;;8.70;4.50;;;;;;;13.72;33.73;102405.14;230319;1196;141036;-73
2021/10/08 12:37:33;;;;;;;7.90;4.30;;;;;;;13.51;33.04;102407.91;229663;1193;138382;-73
2021/10/08 12:42:38;;;;;;;7.80;5.00;;;;;;;13.88;33.31;102405.46;230019;1193;138717;-75
2021/10/08 12:47:40;;;;;;;8.60;5.00;;;;;;;14.14;34.52;102409.15;230030;1193;138123;-71
2021/10/08 12:52:49;;;;;;;9.40;5.70;;;;;;;13.74;35.98;102404.70;229820;1197;138088;-72
2021/10/08 12:58:18;;;;;;;9.90;4.60;;;;;;;13.61;36.81;102410.85;230062;1193;137591;-73
2021/10/08 13:03:35;;;;;;;7.80;4.50;;;;;;;13.44;37.47;102409.23;229671;1193;137846;-72
2021/10/08 13:08:39;;;;;;;9.00;4.90;;;;;;;13.27;37.72;102405.38;229647;1197;137904;-72
2021/10/08 13:13:49;;;;;;;6.40;4.30;;;;;;;13.09;38.51;102402.39;229640;1195;139244;-72
2021/10/08 13:18:51;;;;;;;7.60;4.30;;;;;;;12.98;39.00;102399.72;229757;1194;137762;-72
2021/10/08 13:23:55;;;;;;;8.80;3.90;;;;;;;12.92;39.36;102406.54;229710;1197;139120;-70
2021/10/08 13:28:57;;;;;;;6.40;3.80;;;;;;;12.85;38.25;102406.55;229502;1194;138197;-72
2021/10/08 13:33:58;;;;;;;5.80;3.80;;;;;;;12.77;39.96;102403.96;229826;1194;137519;-71
2021/10/08 13:39:00;;;;;;;5.60;3.70;;;;;;;12.77;39.11;102401.30;229707;1196;137930;-71
2021/10/08 13:44:02;;;;;;;5.20;4.50;;;;;;;12.79;38.96;102399.07;229759;1193;138134;-72
2021/10/08 13:49:04;;;;;;;6.60;3.40;;;;;;;12.67;40.01;102396.77;229689;1197;137898;-68
2021/10/08 13:54:06;;;;;;;4.20;2.70;;;;;;;12.64;39.45;102393.84;229858;1196;137628;-70
2021/10/08 13:59:07;;;;;;;7.40;3.70;;;;;;;12.68;38.57;102391.26;229742;1194;138388;-72
2021/10/08 14:04:24;;;;;;;7.00;3.10;;;;;;;12.98;37.62;102385.02;229837;1193;137722;-72
2021/10/08 14:14:46;;;;;;;4.60;2.30;;;;;;;12.88;39.08;102388.06;229800;1196;137623;-72
2021/10/08 14:19:48;;;;;;;4.60;2.80;;;;;;;12.98;38.11;102385.02;230189;1195;137640;-72
2021/10/08 14:24:50;;;;;;;3.60;2.00;;;;;;;13.03;37.90;102379.67;229800;1196;137979;-71
2021/10/08 14:29:52;;;;;;;7.00;2.40;;;;;;;12.87;37.52;102378.81;229414;1196;137905;-72
2021/10/08 14:34:53;;;;;;;4.10;2.40;;;;;;;12.69;38.18;102382.00;229670;1195;138854;-72
2021/10/08 14:39:56;;;;;;;7.30;2.40;;;;;;;12.58;38.56;102378.07;229589;1197;139432;-71
2021/10/08 14:44:58;;;;;;;3.70;2.20;;;;;;;12.47;38.50;102375.09;229853;1196;137642;-72
2021/10/08 14:50:00;;;;;;;6.70;2.10;;;;;;;12.40;39.45;102374.13;229654;1196;138670;-71
2021/10/08 15:00:13;;;;;;;4.90;2.10;;;;;;;12.23;39.98;102370.42;229668;1196;138493;-71
2021/10/08 15:05:15;;;;;;;2.90;1.50;;;;;;;12.17;40.04;102373.40;229832;1196;138059;-73
2021/10/08 15:10:17;;;;;;;4.00;1.70;;;;;;;12.10;40.72;102367.17;229815;1195;138158;-73
2021/10/08 15:15:19;;;;;;;6.00;1.80;;;;;;;12.04;40.84;102372.09;229449;1195;138631;-76
2021/10/08 15:20:21;;;;;;;4.60;2.10;;;;;;;11.98;41.59;102372.66;229212;1196;137798;-73
2021/10/08 15:25:23;;;;;;;5.40;2.30;;;;;;;11.89;41.80;102375.42;229144;1197;138013;-71
2021/10/08 15:30:26;;;;;;;4.30;2.10;;;;;;;11.83;42.05;102383.08;229677;1195;137970;-73
2021/10/08 15:35:31;;;;;;;5.60;2.80;;;;;;;11.77;42.69;102392.20;229954;1197;137878;-72
2021/10/08 15:40:36;;;;;;;4.40;2.10;;;;;;;11.66;43.54;102390.14;229509;1195;138284;-74
2021/10/08 15:45:39;;;;;;;4.50;2.10;;;;;;;11.55;44.66;102394.45;229514;1193;138232;-72
2021/10/08 15:50:40;;;;;;;3.80;2.20;;;;;;;11.43;45.09;102402.02;229648;1193;138833;-72
2021/10/08 15:55:42;;;;;;;6.50;1.70;;;;;;;11.32;45.64;102402.66;229703;1193;137951;-72
2021/10/08 16:00:44;;;;;;;7.00;2.80;;;;;;;11.21;46.23;102406.45;230082;1193;138870;-72
2021/10/08 16:05:46;;;;;;;3.70;2.00;;;;;;;11.09;47.13;102403.77;229771;1193;137753;-72
2021/10/08 16:10:47;;;;;;;5.80;3.50;;;;;;;10.97;47.30;102407.70;229645;1193;138032;-73
2021/10/08 16:15:49;;;;;;;6.10;3.80;;;;;;;10.88;48.16;102411.86;229726;1193;138442;-73
2021/10/08 16:20:51;;;;;;;10.50;4.10;;;;;;;10.77;49.02;102417.92;229804;1193;138136;-72
2021/10/08 16:25:53;;;;;;;11.00;3.80;;;;;;;10.64;50.15;102426.95;229769;1193;138922;-73
2021/10/08 16:30:55;;;;;;;6.80;4.20;;;;;;;10.48;50.99;102430.61;229677;1187;139656;-74
2021/10/08 16:35:57;;;;;;;6.90;5.30;;;;;;;10.37;51.99;102432.48;230350;1193;137986;-74
2021/10/08 16:40:59;;;;;;;8.60;4.90;;;;;;;10.28;52.32;102439.37;229538;1194;138013;-75
2021/10/08 16:46:02;;;;;;;7.30;5.20;;;;;;;10.16;53.01;102439.77;230057;1194;139186;-72
2021/10/08 16:51:04;;;;;;;8.80;5.50;;;;;;;10.03;54.15;102452.63;229869;1193;137753;-73
2021/10/08 16:56:06;;;;;;;10.80;5.90;;;;;;;9.88;54.82;102451.46;230282;1187;138066;-73
2021/10/08 17:01:08;;;;;;;10.50;5.60;;;;;;;9.75;55.80;102456.52;229707;1193;138140;-71
2021/10/08 17:06:09;;;;;;;11.60;5.30;;;;;;;9.63;56.39;102464.28;229717;1194;139241;-72
2021/10/08 17:11:11;;;;;;;13.70;6.70;;;;;;;9.53;57.14;102468.77;229608;1194;137655;-73
2021/10/08 17:16:13;;;;;;;8.50;6.10;;;;;;;9.43;57.05;102468.73;229625;1187;138037;-74
2021/10/08 17:21:15;;;;;;;10.00;6.20;;;;;;;9.35;57.45;102470.42;229658;1193;137872;-72
2021/10/08 17:27:09;;;;;;;10.00;5.90;;;;;;;9.30;57.41;102468.42;229925;1193;138094;-72
2021/10/08 17:36:52;;;;;;;12.40;6.30;;;;;;;9.30;56.33;102479.86;229807;1193;138440;-73
2021/10/08 17:41:55;;;;;;;7.30;5.70;;;;;;;9.27;56.18;102475.14;229841;1193;138128;-73
2021/10/08 17:46:56;;;;;;;10.70;7.10;;;;;;;9.23;56.51;102480.50;230163;1193;138200;-72
2021/10/08 17:51:58;;;;;;;9.30;6.20;;;;;;;9.17;56.29;102480.54;230098;1193;137872;-75
2021/10/08 17:57:00;;;;;;;11.40;6.70;;;;;;;9.14;56.50;102477.00;230380;1193;138124;-73
2021/10/08 18:02:02;;;;;;;12.10;6.40;;;;;;;9.11;56.51;102478.73;229996;1193;137597;-72
2021/10/08 18:07:04;;;;;;;10.70;6.10;;;;;;;9.02;56.71;102483.67;230463;1193;231114;-72
2021/10/08 18:12:06;;;;;;;8.80;5.90;;;;;;;9.02;56.77;102487.71;230252;1193;137634;-73
2021/10/08 18:17:08;;;;;;;9.90;6.70;;;;;;;8.98;56.65;102491.98;229548;1193;137509;-73
2021/10/08 18:22:09;;;;;;;10.60;6.30;;;;;;;8.96;57.06;102492.65;229886;1193;137589;-72
2021/10/08 18:27:11;;;;;;;10.50;6.70;;;;;;;8.90;56.94;102494.25;229656;1196;138274;-73
2021/10/08 18:32:13;;;;;;;8.50;6.60;;;;;;;8.83;57.07;102493.42;230004;1193;138082;-73
2021/10/08 18:37:16;;;;;;;11.60;6.30;;;;;;;8.77;57.29;102496.58;229364;1193;137655;-71
2021/10/08 18:42:18;;;;;;;8.70;7.00;;;;;;;8.69;58.02;102499.73;229961;1193;137869;-74
2021/10/08 18:47:20;;;;;;;9.60;7.30;;;;;;;8.62;58.27;102499.05;230104;1193;138431;-74
2021/10/08 18:52:22;;;;;;;9.10;7.00;;;;;;;8.56;58.38;102504.47;230012;1193;138272;-75
2021/10/08 18:57:24;;;;;;;10.90;7.30;;;;;;;8.57;58.72;102506.50;229857;1178;137873;-77
2021/10/08 19:02:26;;;;;;;11.90;7.50;;;;;;;8.53;58.75;102510.11;230569;1193;138862;-74
2021/10/08 19:07:29;;;;;;;9.80;7.20;;;;;;;8.53;58.39;102509.73;229960;1193;138245;-76
2021/10/08 19:12:35;;;;;;;11.20;7.70;;;;;;;8.52;58.19;102513.16;230166;1193;137926;-75
2021/10/08 19:22:42;;;;;;;10.10;7.90;;;;;;;8.46;58.22;102513.82;230873;1193;137699;-76
2021/10/08 19:27:44;;;;;;;11.80;7.80;;;;;;;8.41;58.58;102512.57;230521;1194;138094;-77
2021/10/08 19:32:45;;;;;;;14.50;8.60;;;;;;;8.35;58.92;102511.80;230763;1193;137901;-75
2021/10/08 19:37:47;;;;;;;12.00;7.40;;;;;;;8.31;58.84;102513.75;230303;1193;137512;-77
2021/10/08 19:42:51;;;;;;;10.70;8.50;;;;;;;8.26;59.17;102505.98;230613;1187;137532;-74
2021/10/08 19:47:53;;;;;;;13.00;9.40;;;;;;;8.21;59.04;102506.44;230954;1193;138551;-75
2021/10/08 19:52:55;;;;;;;13.00;9.90;;;;;;;8.12;59.34;102507.48;231176;1193;137850;-74
2021/10/08 19:57:56;;;;;;;13.80;10.40;;;;;;;8.12;59.23;102510.46;231296;1193;138491;-76
2021/10/08 20:02:58;;;;;;;17.70;11.00;;;;;;;8.07;59.42;102518.25;230448;1193;138068;-76
2021/10/08 20:18:22;;;;;;;16.80;12.40;;;;;;;7.86;60.41;102524.52;231121;1193;138658;-76
2021/10/08 20:23:24;;;;;;;16.80;11.90;;;;;;;7.84;60.49;102519.34;231347;1193;138691;-74
2021/10/08 20:28:27;;;;;;;20.00;13.10;;;;;;;7.89;60.38;102515.05;230062;1193;137829;-72
2021/10/08 20:33:30;;;;;;;18.00;11.10;;;;;;;7.81;60.44;102518.86;229753;1193;138010;-75
2021/10/08 20:38:34;;;;;;;16.50;12.00;;;;;;;7.74;60.50;102522.02;230051;1193;138745;-72
2021/10/08 20:43:35;;;;;;;14.50;10.90;;;;;;;7.69;61.06;102518.46;229686;1192;138176;-74
2021/10/08 20:48:37;;;;;;;17.80;12.40;;;;;;;7.66;61.60;102519.83;230876;1193;138043;-74
2021/10/08 20:53:39;;;;;;;17.00;12.10;;;;;;;7.64;61.28;102519.73;230863;1193;137788;-75
2021/10/08 20:58:41;;;;;;;17.10;12.40;;;;;;;7.59;61.62;102519.83;230171;1193;137668;-74
2021/10/08 21:03:42;;;;;;;16.80;12.40;;;;;;;7.55;61.81;102522.30;230116;1193;139881;-74
2021/10/08 21:08:44;;;;;;;17.00;12.80;;;;;;;7.48;61.95;102520.77;230115;1193;138143;-74
2021/10/08 21:13:47;;;;;;;14.80;11.90;;;;;;;7.42;62.52;102523.36;230004;1193;138342;-74
2021/10/08 21:18:52;;;;;;;16.40;12.60;;;;;;;7.36;62.64;102525.75;230160;1193;138001;-73
2021/10/08 21:23:53;;;;;;;19.40;13.00;;;;;;;7.32;62.66;102528.09;229800;1193;138221;-73
2021/10/08 21:29:03;;;;;;;16.10;11.50;;;;;;;7.32;62.79;102528.80;229658;1193;139784;-72
2021/10/08 21:34:06;;;;;;;18.70;12.70;;;;;;;7.28;63.20;102530.07;229639;1193;138209;-69
2021/10/08 21:39:13;;;;;;;17.00;12.80;;;;;;;7.25;62.92;102524.43;230311;1187;138324;-73
2021/10/08 21:44:17;;;;;;;16.10;11.60;;;;;;;7.21;62.78;102516.21;230186;1193;137809;-72
2021/10/08 21:49:19;;;;;;;17.00;13.10;;;;;;;7.23;62.43;102523.14;229892;1193;138093;-74
2021/10/08 21:54:21;;;;;;;14.60;11.90;;;;;;;7.21;62.87;102521.64;229897;1193;137914;-72
2021/10/08 21:59:22;;;;;;;14.30;11.00;;;;;;;7.14;62.47;102518.88;230028;1194;137944;-74
2021/10/08 22:04:25;;;;;;;15.60;9.70;;;;;;;7.17;62.16;102519.23;230212;1194;138181;-71
2021/10/08 22:09:27;;;;;;;13.50;10.60;;;;;;;7.21;61.91;102518.13;229903;1193;141263;-72
2021/10/08 22:14:28;;;;;;;15.50;10.70;;;;;;;7.22;62.26;102523.87;229693;1193;138517;-73
2021/10/08 22:19:33;;;;;;;14.10;9.80;;;;;;;7.12;62.51;102525.05;229729;1193;137966;-72
2021/10/08 22:34:42;;;;;;;12.50;9.60;;;;;;;7.04;62.49;102512.16;229634;1193;137637;-71
2021/10/08 22:39:44;;;;;;;12.30;9.00;;;;;;;7.02;62.36;102507.17;230023;1193;138098;-73
2021/10/08 22:44:51;;;;;;;14.60;10.30;;;;;;;7.02;62.53;102510.36;229934;1193;138208;-72
2021/10/08 22:49:53;;;;;;;10.80;9.10;;;;;;;7.00;62.13;102506.26;229941;1193;138085;-71
2021/10/08 22:54:54;;;;;;;17.30;9.90;;;;;;;6.95;62.23;102505.28;230015;1193;138028;-72
2021/10/08 22:59:56;;;;;;;13.90;9.30;;;;;;;6.89;62.44;102502.23;230112;1193;138038;-73
2021/10/08 23:04:59;;;;;;;12.50;9.80;;;;;;;6.87;63.06;102498.31;230082;1193;137655;-72
2021/10/08 23:15:32;;;;;;;10.70;9.10;;;;;;;6.68;64.40;102502.77;229947;1193;138114;-70
2021/10/08 23:20:31;;;;;;;12.30;9.60;;;;;;;6.55;64.95;102501.30;229743;1193;138493;-71
2021/10/08 23:25:33;;;;;;;15.90;9.60;;;;;;;6.44;65.51;102501.64;229773;1180;138984;-73
2021/10/08 23:30:36;;;;;;;12.60;9.00;;;;;;;6.32;66.04;102508.19;229745;1193;139201;-73
2021/10/08 23:35:37;;;;;;;12.90;9.30;;;;;;;6.19;66.81;102506.88;229770;1193;139148;-71
2021/10/08 23:40:39;;;;;;;10.90;9.00;;;;;;;6.07;67.33;102502.38;230026;1193;138190;-73
2021/10/08 23:45:41;;;;;;;14.50;9.30;;;;;;;5.98;67.87;102505.43;229714;1193;137459;-72
2021/10/08 23:50:42;;;;;;;12.30;9.80;;;;;;;5.85;68.48;102508.07;229795;1193;137860;-72
2021/10/08 23:55:44;;;;;;;14.20;9.60;;;;;;;5.81;68.82;102513.19;229769;1193;137366;-72
